Mukdahan, Thailand
Current Conditions -  °F | °C
As of 3:00 PM on Tuesday 27 Jan 2015 (Local Time) from VTUU Reporting Station
Clear Clear  
Wind Chill: 93°   Ceiling: Unl
Heat Index: 93°   Visibility: 5mi
Dew Point: 54°   Wind: 3mph
Humidity: 26%   Direction: NA
Pressure: 29.8"   Gusts: NA
Location:  16.54°N, 104.72°E
Report Text: VTUU 270800Z VRB03KT 8000 NSC 34/12 Q1009 A2980 NOSIG
Loading
Personal Weather Stations






























Interactive Weather Map New forecast layout! Learn more

10-Day Weather Forecast

Advertisements
Track Severe Weather on mobile